ROMMA est une association bénévole à but non lucratif. Votre soutien est indispensable : ADHERER à ROMMA ou FAIRE un DON

Crêts du Salève - (74, Haute-Savoie)

Salève (1270 m)   Longitude: 6° 10' 28'' E   Latitude: 46° 7' 42'' N Station romma n°73
 

Détail journalier du     <<     >>

Température Precipitation Humidité Vent Dir Rafale Dir. rafale Ensol.
Heure (°C) (mm) (%) (km/h) (km/h) (min)
01:00 8.509634SO55SO0
02:00 8.808726SSO40SSO0
03:00 8.109128S60S0
04:00 7.909236S63S0
05:00 7.509530ESE44ESE0
06:00 7.909921ENE45ENE0
07:00 9.408811SE21SE0
08:00 7.909213S23SO0
09:00 7.409517SO29OSO20
10:00 8.30929SO21OSO60
11:00 8.90883SO15SO60
12:00 7.809822SO39SO50
13:00 7.709925SO40SSO0
14:00 7.409926SO40SO0
15:00 7.409932SO48SSO0
16:00 7.809627SSO40SO0
17:00 8.409224SO37SSO0
18:00 8.809025SO37SSO0
19:00 8.809121SSO39SO10
20:00 9.208031SSO44SSO0
21:00 8.908226SSO40SSO0
22:00 8.908124SO40SO0
23:00 8.708725SO34SO0
minuit 8.209118SO31SSO0

Graphique du 24-10-2019

 

Serveur OMMA